sensor_id;sensor_type;location;lat;lon;timestamp;P1;durP1;ratioP1;P2;durP2;ratioP2
68455;SDS011;55437;55.046;38.838;2023-02-12T00:02:25;27.75;;;11.73;;
68455;SDS011;55437;55.046;38.838;2023-02-12T00:04:51;24.60;;;11.77;;
68455;SDS011;55437;55.046;38.838;2023-02-12T00:07:17;24.63;;;11.85;;
68455;SDS011;55437;55.046;38.838;2023-02-12T00:09:43;29.77;;;12.68;;
68455;SDS011;55437;55.046;38.838;2023-02-12T00:12:08;22.90;;;10.40;;
68455;SDS011;55437;55.046;38.838;2023-02-12T00:14:37;23.88;;;11.43;;
68455;SDS011;55437;55.046;38.838;2023-02-12T00:17:05;23.77;;;10.93;;
68455;SDS011;55437;55.046;38.838;2023-02-12T00:19:30;30.58;;;12.75;;
68455;SDS011;55437;55.046;38.838;2023-02-12T00:21:56;29.73;;;11.35;;
68455;SDS011;55437;55.046;38.838;2023-02-12T00:24:22;25.33;;;11.27;;
68455;SDS011;55437;55.046;38.838;2023-02-12T00:26:47;21.27;;;10.45;;
68455;SDS011;55437;55.046;38.838;2023-02-12T00:29:15;28.92;;;12.35;;
68455;SDS011;55437;55.046;38.838;2023-02-12T00:31:41;24.80;;;12.13;;
68455;SDS011;55437;55.046;38.838;2023-02-12T00:34:08;24.90;;;12.43;;
68455;SDS011;55437;55.046;38.838;2023-02-12T00:36:34;23.17;;;12.43;;
68455;SDS011;55437;55.046;38.838;2023-02-12T00:39:00;23.13;;;10.43;;
68455;SDS011;55437;55.046;38.838;2023-02-12T00:41:26;27.30;;;11.95;;
68455;SDS011;55437;55.046;38.838;2023-02-12T00:43:52;26.35;;;11.13;;
68455;SDS011;55437;55.046;38.838;2023-02-12T00:46:18;26.65;;;10.85;;
68455;SDS011;55437;55.046;38.838;2023-02-12T00:48:45;25.58;;;11.38;;
68455;SDS011;55437;55.046;38.838;2023-02-12T00:51:11;24.73;;;11.65;;
68455;SDS011;55437;55.046;38.838;2023-02-12T00:53:37;23.83;;;11.10;;
68455;SDS011;55437;55.046;38.838;2023-02-12T00:56:03;24.67;;;11.63;;
68455;SDS011;55437;55.046;38.838;2023-02-12T00:58:29;27.02;;;12.30;;
68455;SDS011;55437;55.046;38.838;2023-02-12T01:00:55;24.88;;;11.13;;
68455;SDS011;55437;55.046;38.838;2023-02-12T01:03:21;25.52;;;11.60;;
68455;SDS011;55437;55.046;38.838;2023-02-12T01:05:47;25.73;;;12.00;;
68455;SDS011;55437;55.046;38.838;2023-02-12T01:08:14;24.52;;;9.90;;
68455;SDS011;55437;55.046;38.838;2023-02-12T01:10:40;24.85;;;11.32;;
68455;SDS011;55437;55.046;38.838;2023-02-12T01:13:12;23.52;;;11.73;;
68455;SDS011;55437;55.046;38.838;2023-02-12T01:15:39;21.95;;;10.57;;
68455;SDS011;55437;55.046;38.838;2023-02-12T01:18:05;25.70;;;12.43;;
68455;SDS011;55437;55.046;38.838;2023-02-12T01:20:31;21.92;;;10.50;;
68455;SDS011;55437;55.046;38.838;2023-02-12T01:22:57;26.63;;;11.60;;
68455;SDS011;55437;55.046;38.838;2023-02-12T01:25:23;25.60;;;11.05;;
68455;SDS011;55437;55.046;38.838;2023-02-12T01:27:51;23.88;;;13.07;;
68455;SDS011;55437;55.046;38.838;2023-02-12T01:30:17;25.25;;;10.48;;
68455;SDS011;55437;55.046;38.838;2023-02-12T01:32:46;27.27;;;10.95;;
68455;SDS011;55437;55.046;38.838;2023-02-12T01:35:30;24.63;;;11.20;;
68455;SDS011;55437;55.046;38.838;2023-02-12T01:37:56;24.52;;;12.25;;
68455;SDS011;55437;55.046;38.838;2023-02-12T01:40:24;21.75;;;10.80;;
68455;SDS011;55437;55.046;38.838;2023-02-12T01:42:50;22.52;;;11.52;;
68455;SDS011;55437;55.046;38.838;2023-02-12T01:47:42;25.65;;;12.02;;
68455;SDS011;55437;55.046;38.838;2023-02-12T01:50:10;22.25;;;10.57;;
68455;SDS011;55437;55.046;38.838;2023-02-12T01:52:43;24.42;;;12.63;;
68455;SDS011;55437;55.046;38.838;2023-02-12T01:55:13;26.52;;;12.45;;
68455;SDS011;55437;55.046;38.838;2023-02-12T01:57:41;26.60;;;12.27;;
68455;SDS011;55437;55.046;38.838;2023-02-12T02:00:12;24.13;;;10.93;;
68455;SDS011;55437;55.046;38.838;2023-02-12T02:03:00;24.30;;;12.27;;
68455;SDS011;55437;55.046;38.838;2023-02-12T02:08:18;24.55;;;11.60;;
68455;SDS011;55437;55.046;38.838;2023-02-12T02:10:44;25.73;;;11.48;;
68455;SDS011;55437;55.046;38.838;2023-02-12T02:13:12;28.38;;;14.82;;
68455;SDS011;55437;55.046;38.838;2023-02-12T02:16:19;22.27;;;10.50;;
68455;SDS011;55437;55.046;38.838;2023-02-12T02:19:00;24.33;;;10.40;;
68455;SDS011;55437;55.046;38.838;2023-02-12T02:27:26;23.05;;;10.80;;
68455;SDS011;55437;55.046;38.838;2023-02-12T02:38:07;22.33;;;10.30;;
68455;SDS011;55437;55.046;38.838;2023-02-12T02:41:04;20.35;;;10.15;;
68455;SDS011;55437;55.046;38.838;2023-02-12T02:43:42;21.38;;;9.65;;
68455;SDS011;55437;55.046;38.838;2023-02-12T02:46:13;22.13;;;10.60;;
68455;SDS011;55437;55.046;38.838;2023-02-12T02:48:52;19.58;;;10.35;;
68455;SDS011;55437;55.046;38.838;2023-02-12T02:51:32;20.10;;;9.25;;
68455;SDS011;55437;55.046;38.838;2023-02-12T02:54:44;17.90;;;8.90;;
68455;SDS011;55437;55.046;38.838;2023-02-12T02:56:57;18.38;;;8.02;;
68455;SDS011;55437;55.046;38.838;2023-02-12T02:59:32;18.15;;;8.85;;
68455;SDS011;55437;55.046;38.838;2023-02-12T03:02:22;20.13;;;9.02;;
68455;SDS011;55437;55.046;38.838;2023-02-12T03:04:54;17.35;;;8.00;;
68455;SDS011;55437;55.046;38.838;2023-02-12T03:07:25;16.88;;;7.88;;
68455;SDS011;55437;55.046;38.838;2023-02-12T03:10:04;18.63;;;8.23;;
68455;SDS011;55437;55.046;38.838;2023-02-12T03:12:32;16.52;;;8.65;;
68455;SDS011;55437;55.046;38.838;2023-02-12T03:15:11;15.43;;;7.78;;
68455;SDS011;55437;55.046;38.838;2023-02-12T03:17:58;18.23;;;9.38;;
68455;SDS011;55437;55.046;38.838;2023-02-12T03:20:31;16.02;;;7.53;;
68455;SDS011;55437;55.046;38.838;2023-02-12T03:23:06;11.32;;;5.78;;
68455;SDS011;55437;55.046;38.838;2023-02-12T03:25:48;18.48;;;8.23;;
68455;SDS011;55437;55.046;38.838;2023-02-12T03:28:28;17.27;;;7.72;;
68455;SDS011;55437;55.046;38.838;2023-02-12T03:33:43;15.25;;;7.22;;
68455;SDS011;55437;55.046;38.838;2023-02-12T03:39:09;15.82;;;6.53;;
68455;SDS011;55437;55.046;38.838;2023-02-12T03:41:49;17.33;;;7.63;;
68455;SDS011;55437;55.046;38.838;2023-02-12T03:44:40;15.02;;;7.75;;
68455;SDS011;55437;55.046;38.838;2023-02-12T03:52:40;22.25;;;8.90;;
68455;SDS011;55437;55.046;38.838;2023-02-12T03:55:07;27.63;;;9.43;;
68455;SDS011;55437;55.046;38.838;2023-02-12T03:57:42;15.43;;;7.28;;
68455;SDS011;55437;55.046;38.838;2023-02-12T04:00:14;17.50;;;6.18;;
68455;SDS011;55437;55.046;38.838;2023-02-12T04:02:46;21.58;;;8.95;;
68455;SDS011;55437;55.046;38.838;2023-02-12T04:05:19;20.15;;;8.73;;
68455;SDS011;55437;55.046;38.838;2023-02-12T04:07:47;18.75;;;7.90;;
68455;SDS011;55437;55.046;38.838;2023-02-12T04:10:14;13.77;;;6.45;;
68455;SDS011;55437;55.046;38.838;2023-02-12T04:15:28;21.52;;;7.80;;
68455;SDS011;55437;55.046;38.838;2023-02-12T04:18:05;23.77;;;8.95;;
68455;SDS011;55437;55.046;38.838;2023-02-12T04:20:41;21.23;;;8.23;;
68455;SDS011;55437;55.046;38.838;2023-02-12T04:28:33;21.55;;;9.23;;
68455;SDS011;55437;55.046;38.838;2023-02-12T04:33:45;23.10;;;10.23;;
68455;SDS011;55437;55.046;38.838;2023-02-12T04:36:22;25.10;;;9.63;;
68455;SDS011;55437;55.046;38.838;2023-02-12T04:38:54;19.15;;;8.40;;
68455;SDS011;55437;55.046;38.838;2023-02-12T04:41:25;16.90;;;7.97;;
68455;SDS011;55437;55.046;38.838;2023-02-12T04:43:51;20.77;;;8.80;;
68455;SDS011;55437;55.046;38.838;2023-02-12T04:46:17;18.35;;;7.50;;
68455;SDS011;55437;55.046;38.838;2023-02-12T04:49:03;19.38;;;8.35;;
68455;SDS011;55437;55.046;38.838;2023-02-12T04:51:29;18.02;;;7.78;;
68455;SDS011;55437;55.046;38.838;2023-02-12T04:53:55;18.27;;;7.35;;
68455;SDS011;55437;55.046;38.838;2023-02-12T04:56:21;15.80;;;8.02;;
68455;SDS011;55437;55.046;38.838;2023-02-12T04:58:46;17.67;;;8.00;;
68455;SDS011;55437;55.046;38.838;2023-02-12T05:01:32;16.67;;;8.43;;
68455;SDS011;55437;55.046;38.838;2023-02-12T05:03:59;18.83;;;9.90;;
68455;SDS011;55437;55.046;38.838;2023-02-12T05:06:25;16.70;;;7.25;;
68455;SDS011;55437;55.046;38.838;2023-02-12T05:08:52;15.77;;;8.40;;
68455;SDS011;55437;55.046;38.838;2023-02-12T05:11:18;19.50;;;8.00;;
68455;SDS011;55437;55.046;38.838;2023-02-12T05:13:47;15.95;;;7.18;;
68455;SDS011;55437;55.046;38.838;2023-02-12T05:16:14;17.90;;;7.53;;
68455;SDS011;55437;55.046;38.838;2023-02-12T05:18:41;18.77;;;8.38;;
68455;SDS011;55437;55.046;38.838;2023-02-12T05:21:06;14.80;;;8.00;;
68455;SDS011;55437;55.046;38.838;2023-02-12T05:23:33;16.00;;;5.78;;
68455;SDS011;55437;55.046;38.838;2023-02-12T05:26:03;16.88;;;6.90;;
68455;SDS011;55437;55.046;38.838;2023-02-12T05:28:31;15.68;;;8.02;;
68455;SDS011;55437;55.046;38.838;2023-02-12T05:31:00;18.25;;;7.43;;
68455;SDS011;55437;55.046;38.838;2023-02-12T05:33:28;18.80;;;6.63;;
68455;SDS011;55437;55.046;38.838;2023-02-12T05:35:54;18.33;;;7.47;;
68455;SDS011;55437;55.046;38.838;2023-02-12T05:38:19;23.80;;;8.10;;
68455;SDS011;55437;55.046;38.838;2023-02-12T05:40:46;15.68;;;7.78;;
68455;SDS011;55437;55.046;38.838;2023-02-12T05:43:13;14.73;;;6.00;;
68455;SDS011;55437;55.046;38.838;2023-02-12T05:45:39;18.02;;;7.18;;
68455;SDS011;55437;55.046;38.838;2023-02-12T05:48:05;11.68;;;5.57;;
68455;SDS011;55437;55.046;38.838;2023-02-12T05:50:33;22.45;;;7.30;;
68455;SDS011;55437;55.046;38.838;2023-02-12T05:53:06;11.65;;;5.10;;
68455;SDS011;55437;55.046;38.838;2023-02-12T05:55:32;14.75;;;7.32;;
68455;SDS011;55437;55.046;38.838;2023-02-12T05:57:57;17.23;;;5.78;;
68455;SDS011;55437;55.046;38.838;2023-02-12T06:00:24;18.13;;;6.28;;
68455;SDS011;55437;55.046;38.838;2023-02-12T06:02:50;20.70;;;6.43;;
68455;SDS011;55437;55.046;38.838;2023-02-12T06:05:17;16.42;;;7.13;;
68455;SDS011;55437;55.046;38.838;2023-02-12T06:07:42;25.45;;;6.43;;
68455;SDS011;55437;55.046;38.838;2023-02-12T06:10:08;15.32;;;5.53;;
68455;SDS011;55437;55.046;38.838;2023-02-12T06:12:34;17.80;;;6.40;;
68455;SDS011;55437;55.046;38.838;2023-02-12T06:15:03;16.30;;;5.40;;
68455;SDS011;55437;55.046;38.838;2023-02-12T06:17:29;12.07;;;5.00;;
68455;SDS011;55437;55.046;38.838;2023-02-12T06:19:57;16.15;;;5.60;;
68455;SDS011;55437;55.046;38.838;2023-02-12T06:22:23;22.05;;;5.82;;
68455;SDS011;55437;55.046;38.838;2023-02-12T06:24:48;26.58;;;6.18;;
68455;SDS011;55437;55.046;38.838;2023-02-12T06:27:14;21.02;;;5.90;;
68455;SDS011;55437;55.046;38.838;2023-02-12T06:29:40;19.48;;;7.30;;
68455;SDS011;55437;55.046;38.838;2023-02-12T06:34:58;17.77;;;6.55;;
68455;SDS011;55437;55.046;38.838;2023-02-12T06:37:23;23.48;;;6.97;;
68455;SDS011;55437;55.046;38.838;2023-02-12T06:39:49;17.02;;;4.82;;
68455;SDS011;55437;55.046;38.838;2023-02-12T06:42:15;14.77;;;4.72;;
68455;SDS011;55437;55.046;38.838;2023-02-12T06:44:40;18.05;;;5.00;;
68455;SDS011;55437;55.046;38.838;2023-02-12T06:47:06;13.00;;;5.35;;
68455;SDS011;55437;55.046;38.838;2023-02-12T06:49:32;13.43;;;4.00;;
68455;SDS011;55437;55.046;38.838;2023-02-12T06:51:58;19.52;;;5.50;;
68455;SDS011;55437;55.046;38.838;2023-02-12T06:54:24;11.00;;;4.53;;
68455;SDS011;55437;55.046;38.838;2023-02-12T06:56:50;12.98;;;4.15;;
68455;SDS011;55437;55.046;38.838;2023-02-12T06:59:15;7.90;;;4.07;;
68455;SDS011;55437;55.046;38.838;2023-02-12T07:01:41;13.68;;;4.05;;
68455;SDS011;55437;55.046;38.838;2023-02-12T07:04:08;10.13;;;3.95;;
68455;SDS011;55437;55.046;38.838;2023-02-12T07:06:36;11.73;;;3.65;;
68455;SDS011;55437;55.046;38.838;2023-02-12T07:09:02;9.80;;;3.97;;
68455;SDS011;55437;55.046;38.838;2023-02-12T07:11:30;13.48;;;4.38;;
68455;SDS011;55437;55.046;38.838;2023-02-12T07:14:16;21.73;;;5.07;;
68455;SDS011;55437;55.046;38.838;2023-02-12T07:16:42;14.75;;;3.85;;
68455;SDS011;55437;55.046;38.838;2023-02-12T07:19:10;10.00;;;3.63;;
68455;SDS011;55437;55.046;38.838;2023-02-12T07:21:37;16.17;;;5.28;;
68455;SDS011;55437;55.046;38.838;2023-02-12T07:24:03;14.10;;;6.57;;
68455;SDS011;55437;55.046;38.838;2023-02-12T07:26:29;20.58;;;5.22;;
68455;SDS011;55437;55.046;38.838;2023-02-12T07:28:55;16.75;;;4.70;;
68455;SDS011;55437;55.046;38.838;2023-02-12T07:31:24;11.55;;;3.53;;
68455;SDS011;55437;55.046;38.838;2023-02-12T07:33:53;15.05;;;4.55;;
68455;SDS011;55437;55.046;38.838;2023-02-12T07:36:20;30.58;;;7.97;;
68455;SDS011;55437;55.046;38.838;2023-02-12T07:38:46;10.73;;;3.80;;
68455;SDS011;55437;55.046;38.838;2023-02-12T07:41:17;11.55;;;3.80;;
68455;SDS011;55437;55.046;38.838;2023-02-12T07:43:46;18.30;;;4.68;;
68455;SDS011;55437;55.046;38.838;2023-02-12T07:46:23;13.30;;;4.70;;
68455;SDS011;55437;55.046;38.838;2023-02-12T07:48:54;11.60;;;3.58;;
68455;SDS011;55437;55.046;38.838;2023-02-12T07:51:24;12.20;;;5.03;;
68455;SDS011;55437;55.046;38.838;2023-02-12T07:53:51;11.38;;;4.57;;
68455;SDS011;55437;55.046;38.838;2023-02-12T07:56:18;17.77;;;4.85;;
68455;SDS011;55437;55.046;38.838;2023-02-12T07:58:47;7.40;;;3.47;;
68455;SDS011;55437;55.046;38.838;2023-02-12T08:03:47;8.98;;;3.30;;
68455;SDS011;55437;55.046;38.838;2023-02-12T08:06:15;22.02;;;4.72;;
68455;SDS011;55437;55.046;38.838;2023-02-12T08:08:46;16.77;;;4.50;;
68455;SDS011;55437;55.046;38.838;2023-02-12T08:11:12;11.95;;;4.90;;
68455;SDS011;55437;55.046;38.838;2023-02-12T08:13:40;26.75;;;5.63;;
68455;SDS011;55437;55.046;38.838;2023-02-12T08:16:14;19.95;;;4.95;;
68455;SDS011;55437;55.046;38.838;2023-02-12T08:18:42;17.75;;;5.45;;
68455;SDS011;55437;55.046;38.838;2023-02-12T08:21:09;16.48;;;5.65;;
68455;SDS011;55437;55.046;38.838;2023-02-12T08:23:37;14.82;;;7.20;;
68455;SDS011;55437;55.046;38.838;2023-02-12T08:26:25;13.45;;;5.25;;
68455;SDS011;55437;55.046;38.838;2023-02-12T08:29:04;15.75;;;5.53;;
68455;SDS011;55437;55.046;38.838;2023-02-12T08:31:36;18.60;;;7.38;;
68455;SDS011;55437;55.046;38.838;2023-02-12T08:34:03;21.50;;;7.40;;
68455;SDS011;55437;55.046;38.838;2023-02-12T08:36:33;23.20;;;6.03;;
68455;SDS011;55437;55.046;38.838;2023-02-12T08:39:02;17.63;;;5.72;;
68455;SDS011;55437;55.046;38.838;2023-02-12T08:41:28;14.95;;;5.60;;
68455;SDS011;55437;55.046;38.838;2023-02-12T08:43:58;14.32;;;6.03;;
68455;SDS011;55437;55.046;38.838;2023-02-12T08:46:32;20.85;;;6.63;;
68455;SDS011;55437;55.046;38.838;2023-02-12T08:49:09;20.95;;;8.60;;
68455;SDS011;55437;55.046;38.838;2023-02-12T08:51:39;16.35;;;5.93;;
68455;SDS011;55437;55.046;38.838;2023-02-12T08:54:09;16.73;;;7.45;;
68455;SDS011;55437;55.046;38.838;2023-02-12T08:56:37;17.17;;;5.93;;
68455;SDS011;55437;55.046;38.838;2023-02-12T08:59:04;20.42;;;6.38;;
68455;SDS011;55437;55.046;38.838;2023-02-12T09:01:35;15.85;;;6.38;;
68455;SDS011;55437;55.046;38.838;2023-02-12T09:04:15;23.23;;;7.32;;
68455;SDS011;55437;55.046;38.838;2023-02-12T09:06:46;20.70;;;6.70;;
68455;SDS011;55437;55.046;38.838;2023-02-12T09:09:15;25.17;;;6.05;;
68455;SDS011;55437;55.046;38.838;2023-02-12T09:11:41;19.40;;;5.80;;
68455;SDS011;55437;55.046;38.838;2023-02-12T09:14:09;16.20;;;5.82;;
68455;SDS011;55437;55.046;38.838;2023-02-12T09:16:37;21.23;;;6.15;;
68455;SDS011;55437;55.046;38.838;2023-02-12T09:19:04;17.10;;;5.88;;
68455;SDS011;55437;55.046;38.838;2023-02-12T09:21:36;22.27;;;8.27;;
68455;SDS011;55437;55.046;38.838;2023-02-12T09:24:02;21.05;;;6.85;;
68455;SDS011;55437;55.046;38.838;2023-02-12T09:26:29;24.13;;;6.60;;
68455;SDS011;55437;55.046;38.838;2023-02-12T09:28:56;21.55;;;6.38;;
68455;SDS011;55437;55.046;38.838;2023-02-12T09:31:24;23.92;;;6.60;;
68455;SDS011;55437;55.046;38.838;2023-02-12T09:34:01;18.67;;;6.68;;
68455;SDS011;55437;55.046;38.838;2023-02-12T09:36:30;26.88;;;6.10;;
68455;SDS011;55437;55.046;38.838;2023-02-12T09:39:02;26.65;;;7.28;;
68455;SDS011;55437;55.046;38.838;2023-02-12T09:44:45;20.35;;;5.32;;
68455;SDS011;55437;55.046;38.838;2023-02-12T09:48:04;19.48;;;5.82;;
68455;SDS011;55437;55.046;38.838;2023-02-12T09:53:03;13.88;;;4.63;;
68455;SDS011;55437;55.046;38.838;2023-02-12T09:55:30;17.85;;;6.25;;
68455;SDS011;55437;55.046;38.838;2023-02-12T09:58:02;23.88;;;6.38;;
68455;SDS011;55437;55.046;38.838;2023-02-12T10:01:13;19.75;;;6.07;;
68455;SDS011;55437;55.046;38.838;2023-02-12T10:03:42;21.13;;;5.32;;
68455;SDS011;55437;55.046;38.838;2023-02-12T10:06:16;15.98;;;4.90;;
68455;SDS011;55437;55.046;38.838;2023-02-12T10:11:41;19.25;;;6.65;;
68455;SDS011;55437;55.046;38.838;2023-02-12T10:26:25;18.05;;;5.35;;
68455;SDS011;55437;55.046;38.838;2023-02-12T10:31:28;23.30;;;6.05;;
68455;SDS011;55437;55.046;38.838;2023-02-12T10:33:59;23.42;;;7.25;;
68455;SDS011;55437;55.046;38.838;2023-02-12T10:37:20;16.38;;;6.28;;
68455;SDS011;55437;55.046;38.838;2023-02-12T10:43:02;9.80;;;4.47;;
68455;SDS011;55437;55.046;38.838;2023-02-12T10:45:35;16.80;;;6.00;;
68455;SDS011;55437;55.046;38.838;2023-02-12T10:53:37;14.55;;;5.28;;
68455;SDS011;55437;55.046;38.838;2023-02-12T10:58:41;15.40;;;5.53;;
68455;SDS011;55437;55.046;38.838;2023-02-12T11:04:00;23.10;;;6.75;;
68455;SDS011;55437;55.046;38.838;2023-02-12T11:07:01;27.45;;;6.78;;
68455;SDS011;55437;55.046;38.838;2023-02-12T11:09:35;15.30;;;5.28;;
68455;SDS011;55437;55.046;38.838;2023-02-12T11:17:55;16.40;;;6.90;;
68455;SDS011;55437;55.046;38.838;2023-02-12T11:20:40;12.05;;;4.38;;
68455;SDS011;55437;55.046;38.838;2023-02-12T11:23:21;23.63;;;5.10;;
68455;SDS011;55437;55.046;38.838;2023-02-12T11:26:39;24.13;;;5.22;;
68455;SDS011;55437;55.046;38.838;2023-02-12T11:29:20;15.40;;;4.57;;
68455;SDS011;55437;55.046;38.838;2023-02-12T11:31:59;17.90;;;4.30;;
68455;SDS011;55437;55.046;38.838;2023-02-12T11:34:27;17.73;;;4.95;;
68455;SDS011;55437;55.046;38.838;2023-02-12T11:36:56;22.95;;;6.25;;
68455;SDS011;55437;55.046;38.838;2023-02-12T11:42:02;13.18;;;4.40;;
68455;SDS011;55437;55.046;38.838;2023-02-12T11:44:43;21.83;;;5.95;;
68455;SDS011;55437;55.046;38.838;2023-02-12T11:47:17;20.17;;;6.30;;
68455;SDS011;55437;55.046;38.838;2023-02-12T11:52:25;24.50;;;7.40;;
68455;SDS011;55437;55.046;38.838;2023-02-12T11:55:01;23.75;;;7.60;;
68455;SDS011;55437;55.046;38.838;2023-02-12T11:57:38;17.70;;;5.22;;
68455;SDS011;55437;55.046;38.838;2023-02-12T12:00:18;27.77;;;6.07;;
68455;SDS011;55437;55.046;38.838;2023-02-12T12:03:23;25.63;;;5.38;;
68455;SDS011;55437;55.046;38.838;2023-02-12T12:05:50;10.73;;;4.18;;
68455;SDS011;55437;55.046;38.838;2023-02-12T12:08:23;17.25;;;4.55;;
68455;SDS011;55437;55.046;38.838;2023-02-12T12:11:15;17.85;;;4.85;;
68455;SDS011;55437;55.046;38.838;2023-02-12T12:13:53;14.93;;;4.35;;
68455;SDS011;55437;55.046;38.838;2023-02-12T12:16:35;17.25;;;4.90;;
68455;SDS011;55437;55.046;38.838;2023-02-12T12:25:15;11.40;;;4.10;;
68455;SDS011;55437;55.046;38.838;2023-02-12T12:27:52;11.00;;;3.25;;
68455;SDS011;55437;55.046;38.838;2023-02-12T12:33:55;16.70;;;4.35;;
68455;SDS011;55437;55.046;38.838;2023-02-12T12:39:34;25.60;;;6.20;;
68455;SDS011;55437;55.046;38.838;2023-02-12T12:45:01;18.52;;;5.90;;
68455;SDS011;55437;55.046;38.838;2023-02-12T13:13:04;8.18;;;2.28;;
68455;SDS011;55437;55.046;38.838;2023-02-12T13:16:03;14.70;;;3.42;;
68455;SDS011;55437;55.046;38.838;2023-02-12T13:21:38;12.10;;;3.45;;
68455;SDS011;55437;55.046;38.838;2023-02-12T13:24:32;15.52;;;2.83;;
68455;SDS011;55437;55.046;38.838;2023-02-12T13:27:06;17.33;;;4.10;;
68455;SDS011;55437;55.046;38.838;2023-02-12T13:29:41;16.77;;;6.22;;
68455;SDS011;55437;55.046;38.838;2023-02-12T13:32:12;6.45;;;2.33;;
68455;SDS011;55437;55.046;38.838;2023-02-12T13:34:44;11.05;;;3.85;;
68455;SDS011;55437;55.046;38.838;2023-02-12T13:37:17;10.25;;;3.83;;
68455;SDS011;55437;55.046;38.838;2023-02-12T13:39:49;12.48;;;4.35;;
68455;SDS011;55437;55.046;38.838;2023-02-12T13:58:49;6.95;;;2.90;;
68455;SDS011;55437;55.046;38.838;2023-02-12T14:04:21;13.35;;;4.80;;
68455;SDS011;55437;55.046;38.838;2023-02-12T14:07:07;7.63;;;2.97;;
68455;SDS011;55437;55.046;38.838;2023-02-12T14:09:36;17.45;;;3.67;;
68455;SDS011;55437;55.046;38.838;2023-02-12T14:14:35;11.80;;;2.85;;
68455;SDS011;55437;55.046;38.838;2023-02-12T14:27:52;11.60;;;4.38;;
68455;SDS011;55437;55.046;38.838;2023-02-12T14:30:23;17.20;;;5.40;;
68455;SDS011;55437;55.046;38.838;2023-02-12T14:38:55;18.27;;;4.25;;
68455;SDS011;55437;55.046;38.838;2023-02-12T14:40:40;13.07;;;2.97;;
68455;SDS011;55437;55.046;38.838;2023-02-12T14:48:56;14.73;;;3.92;;
68455;SDS011;55437;55.046;38.838;2023-02-12T14:56:55;20.73;;;4.47;;
68455;SDS011;55437;55.046;38.838;2023-02-12T14:59:26;26.52;;;4.25;;
68455;SDS011;55437;55.046;38.838;2023-02-12T15:01:56;28.98;;;5.05;;
68455;SDS011;55437;55.046;38.838;2023-02-12T15:04:25;22.80;;;4.78;;
68455;SDS011;55437;55.046;38.838;2023-02-12T15:06:58;22.55;;;5.80;;
68455;SDS011;55437;55.046;38.838;2023-02-12T15:09:59;16.73;;;3.53;;
68455;SDS011;55437;55.046;38.838;2023-02-12T15:12:37;30.30;;;5.53;;
68455;SDS011;55437;55.046;38.838;2023-02-12T15:17:59;23.88;;;4.15;;
68455;SDS011;55437;55.046;38.838;2023-02-12T15:20:33;9.75;;;3.50;;
68455;SDS011;55437;55.046;38.838;2023-02-12T15:23:25;16.23;;;3.70;;
68455;SDS011;55437;55.046;38.838;2023-02-12T15:25:54;15.48;;;3.97;;
68455;SDS011;55437;55.046;38.838;2023-02-12T15:28:22;12.25;;;3.85;;
68455;SDS011;55437;55.046;38.838;2023-02-12T15:30:58;10.23;;;3.28;;
68455;SDS011;55437;55.046;38.838;2023-02-12T15:33:36;15.57;;;3.90;;
68455;SDS011;55437;55.046;38.838;2023-02-12T15:36:08;11.45;;;3.95;;
68455;SDS011;55437;55.046;38.838;2023-02-12T15:38:36;12.32;;;3.17;;
68455;SDS011;55437;55.046;38.838;2023-02-12T15:41:06;14.10;;;3.38;;
68455;SDS011;55437;55.046;38.838;2023-02-12T15:43:34;11.52;;;3.78;;
68455;SDS011;55437;55.046;38.838;2023-02-12T15:46:10;11.55;;;3.13;;
68455;SDS011;55437;55.046;38.838;2023-02-12T15:48:48;13.63;;;4.65;;
68455;SDS011;55437;55.046;38.838;2023-02-12T15:54:03;26.60;;;5.75;;
68455;SDS011;55437;55.046;38.838;2023-02-12T15:56:52;32.05;;;7.13;;
68455;SDS011;55437;55.046;38.838;2023-02-12T15:59:19;24.35;;;6.40;;
68455;SDS011;55437;55.046;38.838;2023-02-12T16:01:51;33.95;;;6.28;;
68455;SDS011;55437;55.046;38.838;2023-02-12T16:04:22;18.23;;;5.90;;
68455;SDS011;55437;55.046;38.838;2023-02-12T16:06:53;15.48;;;4.78;;
68455;SDS011;55437;55.046;38.838;2023-02-12T16:09:32;18.05;;;4.05;;
68455;SDS011;55437;55.046;38.838;2023-02-12T16:12:02;11.65;;;4.65;;
68455;SDS011;55437;55.046;38.838;2023-02-12T16:17:17;17.27;;;4.03;;
68455;SDS011;55437;55.046;38.838;2023-02-12T16:19:59;24.95;;;4.63;;
68455;SDS011;55437;55.046;38.838;2023-02-12T16:22:44;14.88;;;4.78;;
68455;SDS011;55437;55.046;38.838;2023-02-12T16:25:17;16.45;;;3.92;;
68455;SDS011;55437;55.046;38.838;2023-02-12T16:27:49;13.77;;;3.67;;
68455;SDS011;55437;55.046;38.838;2023-02-12T16:33:30;17.10;;;3.72;;
68455;SDS011;55437;55.046;38.838;2023-02-12T16:38:53;10.68;;;3.63;;
68455;SDS011;55437;55.046;38.838;2023-02-12T16:41:33;8.15;;;3.45;;
68455;SDS011;55437;55.046;38.838;2023-02-12T16:46:46;9.85;;;4.57;;
68455;SDS011;55437;55.046;38.838;2023-02-12T16:49:19;19.58;;;4.03;;
68455;SDS011;55437;55.046;38.838;2023-02-12T16:51:48;11.52;;;5.65;;
68455;SDS011;55437;55.046;38.838;2023-02-12T16:54:31;14.18;;;5.95;;
68455;SDS011;55437;55.046;38.838;2023-02-12T16:57:07;23.63;;;5.55;;
68455;SDS011;55437;55.046;38.838;2023-02-12T16:59:35;23.02;;;4.43;;
68455;SDS011;55437;55.046;38.838;2023-02-12T17:02:12;19.92;;;5.90;;
68455;SDS011;55437;55.046;38.838;2023-02-12T17:04:45;20.65;;;5.18;;
68455;SDS011;55437;55.046;38.838;2023-02-12T17:07:29;12.32;;;4.32;;
68455;SDS011;55437;55.046;38.838;2023-02-12T17:10:01;12.63;;;4.50;;
68455;SDS011;55437;55.046;38.838;2023-02-12T17:12:30;13.48;;;3.53;;
68455;SDS011;55437;55.046;38.838;2023-02-12T17:14:55;11.55;;;4.43;;
68455;SDS011;55437;55.046;38.838;2023-02-12T17:17:21;16.35;;;5.03;;
68455;SDS011;55437;55.046;38.838;2023-02-12T17:19:47;23.83;;;7.55;;
68455;SDS011;55437;55.046;38.838;2023-02-12T17:22:17;28.70;;;10.15;;
68455;SDS011;55437;55.046;38.838;2023-02-12T17:24:48;20.55;;;5.72;;
68455;SDS011;55437;55.046;38.838;2023-02-12T17:27:16;25.90;;;6.03;;
68455;SDS011;55437;55.046;38.838;2023-02-12T17:29:43;14.32;;;4.00;;
68455;SDS011;55437;55.046;38.838;2023-02-12T17:32:08;9.57;;;3.95;;
68455;SDS011;55437;55.046;38.838;2023-02-12T17:34:35;16.63;;;4.60;;
68455;SDS011;55437;55.046;38.838;2023-02-12T17:37:04;7.28;;;3.22;;
68455;SDS011;55437;55.046;38.838;2023-02-12T17:39:31;11.85;;;4.68;;
68455;SDS011;55437;55.046;38.838;2023-02-12T17:41:57;6.00;;;2.25;;
68455;SDS011;55437;55.046;38.838;2023-02-12T17:44:25;9.93;;;3.10;;
68455;SDS011;55437;55.046;38.838;2023-02-12T17:46:50;13.13;;;3.88;;
68455;SDS011;55437;55.046;38.838;2023-02-12T17:49:17;11.13;;;4.05;;
68455;SDS011;55437;55.046;38.838;2023-02-12T17:51:43;12.23;;;2.92;;
68455;SDS011;55437;55.046;38.838;2023-02-12T17:54:09;11.75;;;3.45;;
68455;SDS011;55437;55.046;38.838;2023-02-12T17:56:34;11.70;;;3.95;;
68455;SDS011;55437;55.046;38.838;2023-02-12T17:59:00;11.95;;;3.63;;
68455;SDS011;55437;55.046;38.838;2023-02-12T18:01:26;15.38;;;3.25;;
68455;SDS011;55437;55.046;38.838;2023-02-12T18:03:52;9.05;;;3.13;;
68455;SDS011;55437;55.046;38.838;2023-02-12T18:06:24;15.30;;;3.05;;
68455;SDS011;55437;55.046;38.838;2023-02-12T18:08:51;11.25;;;3.13;;
68455;SDS011;55437;55.046;38.838;2023-02-12T18:11:17;8.60;;;3.95;;
68455;SDS011;55437;55.046;38.838;2023-02-12T18:13:44;13.80;;;3.42;;